createdAt,value
2016-08-30T00:00:06.812Z,23.99
2016-08-30T00:01:03.185Z,23.92
2016-08-30T00:02:03.600Z,23.96
2016-08-30T00:03:03.074Z,23.97
2016-08-30T00:04:02.998Z,23.93
2016-08-30T00:05:03.914Z,24
2016-08-30T00:06:03.039Z,23.96
2016-08-30T00:07:03.025Z,23.99
2016-08-30T00:08:03.052Z,23.92
2016-08-30T00:09:03.039Z,23.97
2016-08-30T00:10:03.735Z,23.93
2016-08-30T00:11:03.049Z,23.92
2016-08-30T00:12:03.077Z,23.99
2016-08-30T00:13:03.071Z,23.97
2016-08-30T00:14:03.081Z,23.92
2016-08-30T00:15:03.100Z,24.02
2016-08-30T00:16:03.114Z,23.96
2016-08-30T00:17:03.133Z,23.97
2016-08-30T00:18:03.135Z,23.93
2016-08-30T00:19:03.128Z,23.99
2016-08-30T00:20:03.375Z,23.92
2016-08-30T00:21:03.149Z,24.03
2016-08-30T00:22:03.145Z,23.93
2016-08-30T00:23:03.163Z,23.93
2016-08-30T00:24:03.158Z,23.92
2016-08-30T00:25:03.179Z,23.89
2016-08-30T00:26:03.179Z,23.94
2016-08-30T00:27:03.201Z,23.94
2016-08-30T00:28:03.195Z,23.96
2016-08-30T00:29:03.208Z,23.94
2016-08-30T00:30:04.230Z,23.96
2016-08-30T00:31:03.223Z,23.99
2016-08-30T00:32:03.248Z,23.94
2016-08-30T00:33:03.236Z,23.85
2016-08-30T00:34:03.263Z,23.97
2016-08-30T00:35:03.263Z,23.85
2016-08-30T00:36:03.280Z,24
2016-08-30T00:37:03.283Z,23.96
2016-08-30T00:38:03.291Z,23.94
2016-08-30T00:39:03.282Z,23.94
2016-08-30T00:40:03.298Z,23.9
2016-08-30T00:41:04.014Z,23.94
2016-08-30T00:42:03.334Z,23.94
2016-08-30T00:43:03.342Z,23.87
2016-08-30T00:44:03.342Z,23.94
2016-08-30T00:45:04.053Z,23.87
2016-08-30T00:46:03.366Z,23.99
2016-08-30T00:47:03.375Z,23.85
2016-08-30T00:48:03.377Z,23.85
2016-08-30T00:49:03.383Z,23.85
2016-08-30T00:50:03.394Z,23.84
2016-08-30T00:51:03.391Z,23.85
2016-08-30T00:52:03.411Z,23.87
2016-08-30T00:53:03.410Z,23.87
2016-08-30T00:54:03.431Z,23.87
2016-08-30T00:55:03.425Z,23.89
2016-08-30T00:56:03.452Z,23.84
2016-08-30T00:57:03.454Z,23.9
2016-08-30T00:58:03.467Z,23.85
2016-08-30T00:59:03.450Z,23.82
2016-08-30T01:00:03.470Z,23.87
2016-08-30T01:01:03.563Z,23.81
2016-08-30T01:02:03.482Z,23.9
2016-08-30T01:03:03.508Z,23.9
2016-08-30T01:04:03.514Z,23.89
2016-08-30T01:05:03.528Z,23.85
2016-08-30T01:06:03.517Z,23.93
2016-08-30T01:07:03.527Z,23.92
2016-08-30T01:08:03.539Z,23.84
2016-08-30T01:09:03.537Z,23.85
2016-08-30T01:10:03.596Z,23.85
2016-08-30T01:11:03.557Z,23.85
2016-08-30T01:12:03.871Z,23.85
2016-08-30T01:13:03.567Z,23.87
2016-08-30T01:14:03.593Z,23.84
2016-08-30T01:15:03.585Z,23.85
2016-08-30T01:16:03.916Z,23.82
2016-08-30T01:17:03.610Z,23.82
2016-08-30T01:18:03.617Z,23.81
2016-08-30T01:19:03.637Z,23.82
2016-08-30T01:20:03.949Z,23.82
2016-08-30T01:21:03.636Z,23.82
2016-08-30T01:22:03.641Z,23.81
2016-08-30T01:23:03.660Z,23.82
2016-08-30T01:24:03.660Z,23.82
2016-08-30T01:25:04.026Z,23.78
2016-08-30T01:26:03.701Z,23.85
2016-08-30T01:27:03.695Z,23.77
2016-08-30T01:28:03.712Z,23.78
2016-08-30T01:29:03.705Z,23.77
2016-08-30T01:30:03.900Z,23.81
2016-08-30T01:31:03.815Z,23.82
2016-08-30T01:32:03.731Z,23.79
2016-08-30T01:33:03.751Z,23.85
2016-08-30T01:34:03.916Z,23.74
2016-08-30T01:35:03.923Z,23.78
2016-08-30T01:36:03.767Z,23.84
2016-08-30T01:37:03.870Z,23.85
2016-08-30T01:38:03.793Z,23.81
2016-08-30T01:39:03.784Z,23.75
2016-08-30T01:40:04.109Z,23.78
2016-08-30T01:41:03.802Z,23.81
2016-08-30T01:42:03.882Z,23.78
2016-08-30T01:43:03.822Z,23.77
2016-08-30T01:44:03.949Z,23.84
2016-08-30T01:45:03.859Z,23.77
2016-08-30T01:46:03.846Z,23.81
2016-08-30T01:47:03.866Z,23.79
2016-08-30T01:48:03.871Z,23.79
2016-08-30T01:49:04.179Z,23.81
2016-08-30T01:50:03.898Z,23.75
2016-08-30T01:51:03.899Z,23.78
2016-08-30T01:52:03.892Z,23.82
2016-08-30T01:53:04.109Z,23.78
2016-08-30T01:54:03.921Z,23.78
2016-08-30T01:55:03.919Z,23.81
2016-08-30T01:56:03.929Z,23.82
2016-08-30T01:57:03.934Z,23.79
2016-08-30T01:58:03.943Z,23.75
2016-08-30T01:59:03.995Z,23.78
2016-08-30T02:00:03.977Z,23.81
2016-08-30T02:01:04.313Z,23.77
2016-08-30T02:02:03.978Z,23.78
2016-08-30T02:03:03.991Z,23.74
2016-08-30T02:04:04.012Z,23.78
2016-08-30T02:05:04.118Z,23.78
2016-08-30T02:06:04.016Z,23.72
2016-08-30T02:07:04.030Z,23.75
2016-08-30T02:08:04.040Z,23.75
2016-08-30T02:09:04.037Z,23.72
2016-08-30T02:10:04.067Z,23.79
2016-08-30T02:11:04.061Z,23.74
2016-08-30T02:12:04.056Z,23.75
2016-08-30T02:13:04.328Z,23.77
2016-08-30T02:14:04.074Z,23.67
2016-08-30T02:15:04.441Z,23.74
2016-08-30T02:16:04.097Z,23.75
2016-08-30T02:17:04.105Z,23.7
2016-08-30T02:18:04.222Z,23.71
2016-08-30T02:19:04.424Z,23.71
2016-08-30T02:20:04.135Z,23.62
2016-08-30T02:21:04.407Z,23.7
2016-08-30T02:22:04.159Z,23.7
2016-08-30T02:23:04.169Z,23.71
2016-08-30T02:24:04.422Z,23.7
2016-08-30T02:25:04.990Z,23.67
2016-08-30T02:26:04.180Z,23.72
2016-08-30T02:27:04.248Z,23.64
2016-08-30T02:28:04.214Z,23.67
2016-08-30T02:29:04.202Z,23.74
2016-08-30T02:30:04.223Z,23.63
2016-08-30T02:31:04.536Z,23.67
2016-08-30T02:32:04.236Z,23.78
2016-08-30T02:33:04.238Z,23.63
2016-08-30T02:34:04.488Z,23.71
2016-08-30T02:35:04.472Z,23.67
2016-08-30T02:36:04.281Z,23.67
2016-08-30T02:37:04.283Z,23.72
2016-08-30T02:38:04.432Z,23.63
2016-08-30T02:39:04.540Z,23.66
2016-08-30T02:40:04.311Z,23.62
2016-08-30T02:41:04.311Z,23.72
2016-08-30T02:42:04.353Z,23.67
2016-08-30T02:43:04.632Z,23.7
2016-08-30T02:44:04.345Z,23.72
2016-08-30T02:45:04.353Z,23.7
2016-08-30T02:46:04.355Z,23.62
2016-08-30T02:47:04.554Z,23.7
2016-08-30T02:48:04.362Z,23.6
2016-08-30T02:49:04.375Z,23.7
2016-08-30T02:50:04.372Z,23.72
2016-08-30T02:51:04.385Z,23.72
2016-08-30T02:52:04.398Z,23.7
2016-08-30T02:53:04.399Z,23.67
2016-08-30T02:54:04.403Z,23.66
2016-08-30T02:55:04.611Z,23.67
2016-08-30T02:56:04.426Z,23.64
2016-08-30T02:57:04.451Z,23.67
2016-08-30T02:58:04.449Z,23.7
2016-08-30T02:59:04.470Z,23.66
2016-08-30T03:00:04.473Z,23.66
2016-08-30T03:01:04.569Z,23.67
2016-08-30T03:02:04.473Z,23.63
2016-08-30T03:03:04.797Z,23.63
2016-08-30T03:04:04.494Z,23.67
2016-08-30T03:05:04.498Z,23.67
2016-08-30T03:06:04.514Z,23.6
2016-08-30T03:07:04.678Z,23.6
2016-08-30T03:08:04.527Z,23.66
2016-08-30T03:09:04.651Z,23.64
2016-08-30T03:10:05.229Z,23.63
2016-08-30T03:11:04.551Z,23.71
2016-08-30T03:12:04.567Z,23.72
2016-08-30T03:13:04.561Z,23.7
2016-08-30T03:14:04.582Z,23.71
2016-08-30T03:15:04.591Z,23.7
2016-08-30T03:16:04.609Z,23.67
2016-08-30T03:17:04.608Z,23.62
2016-08-30T03:18:04.822Z,23.57
2016-08-30T03:19:04.618Z,23.63
2016-08-30T03:20:04.619Z,23.66
2016-08-30T03:21:04.694Z,23.67
2016-08-30T03:22:04.648Z,23.64
2016-08-30T03:23:04.666Z,23.59
2016-08-30T03:24:04.866Z,23.67
2016-08-30T03:25:04.664Z,23.59
2016-08-30T03:26:04.665Z,23.57
2016-08-30T03:27:04.683Z,23.6
2016-08-30T03:28:04.708Z,23.62
2016-08-30T03:29:04.815Z,23.59
2016-08-30T03:30:04.718Z,23.6
2016-08-30T03:31:04.727Z,23.6
2016-08-30T03:32:04.727Z,23.57
2016-08-30T03:33:04.725Z,23.59
2016-08-30T03:34:04.742Z,23.59
2016-08-30T03:35:04.758Z,23.6
2016-08-30T03:36:04.773Z,23.56
2016-08-30T03:37:04.780Z,23.56
2016-08-30T03:38:04.785Z,23.57
2016-08-30T03:39:04.780Z,23.62
2016-08-30T03:40:04.790Z,23.59
2016-08-30T03:41:04.808Z,23.55
2016-08-30T03:42:04.811Z,23.56
2016-08-30T03:43:04.813Z,23.56
2016-08-30T03:44:04.842Z,23.56
2016-08-30T03:45:04.822Z,23.59
2016-08-30T03:46:04.840Z,23.55
2016-08-30T03:47:04.840Z,23.57
2016-08-30T03:48:04.849Z,23.56
2016-08-30T03:49:04.863Z,23.59
2016-08-30T03:50:04.884Z,23.57
2016-08-30T03:51:04.887Z,23.56
2016-08-30T03:52:04.884Z,23.56
2016-08-30T03:53:04.905Z,23.56
2016-08-30T03:54:04.914Z,23.57
2016-08-30T03:55:04.905Z,23.57
2016-08-30T03:56:04.915Z,23.55
2016-08-30T03:57:04.934Z,23.55
2016-08-30T03:58:04.945Z,23.56
2016-08-30T03:59:04.958Z,23.6
2016-08-30T04:00:05.085Z,23.53
2016-08-30T04:01:04.953Z,23.53
2016-08-30T04:02:04.976Z,23.53
2016-08-30T04:03:04.981Z,23.52
2016-08-30T04:04:04.979Z,23.53
2016-08-30T04:05:04.995Z,23.56
2016-08-30T04:06:05.022Z,23.52
2016-08-30T04:07:05.017Z,23.6
2016-08-30T04:08:05.012Z,23.56
2016-08-30T04:09:05.041Z,23.56
2016-08-30T04:10:05.090Z,23.56
2016-08-30T04:11:05.036Z,23.47
2016-08-30T04:12:05.058Z,23.52
2016-08-30T04:13:05.069Z,23.56
2016-08-30T04:14:05.077Z,23.5
2016-08-30T04:15:05.073Z,23.53
2016-08-30T04:16:05.095Z,23.52
2016-08-30T04:17:05.112Z,23.5
2016-08-30T04:18:05.105Z,23.55
2016-08-30T04:19:05.119Z,23.45
2016-08-30T04:20:05.112Z,23.55
2016-08-30T04:21:05.126Z,23.55
2016-08-30T04:22:05.143Z,23.48
2016-08-30T04:23:05.141Z,23.57
2016-08-30T04:24:05.158Z,23.44
2016-08-30T04:25:05.166Z,23.5
2016-08-30T04:26:05.172Z,23.52
2016-08-30T04:27:05.170Z,23.52
2016-08-30T04:28:05.182Z,23.47
2016-08-30T04:29:05.206Z,23.56
2016-08-30T04:30:05.190Z,23.5
2016-08-30T04:31:05.196Z,23.48
2016-08-30T04:32:05.222Z,23.47
2016-08-30T04:33:05.216Z,23.47
2016-08-30T04:34:05.228Z,23.52
2016-08-30T04:35:05.793Z,23.59
2016-08-30T04:36:05.256Z,23.53
2016-08-30T04:37:05.261Z,23.47
2016-08-30T04:38:05.270Z,23.47
2016-08-30T04:39:05.287Z,23.53
2016-08-30T04:40:05.277Z,23.53
2016-08-30T04:41:05.276Z,23.47
2016-08-30T04:42:05.297Z,23.52
2016-08-30T04:43:05.318Z,23.48
2016-08-30T04:44:05.310Z,23.52
2016-08-30T04:45:05.329Z,23.52
2016-08-30T04:46:05.339Z,23.53
2016-08-30T04:47:05.331Z,23.5
2016-08-30T04:48:05.353Z,23.53
2016-08-30T04:49:05.370Z,23.45
2016-08-30T04:50:05.358Z,23.59
2016-08-30T04:51:05.368Z,23.45
2016-08-30T04:52:05.386Z,23.52
2016-08-30T04:53:05.379Z,23.53
2016-08-30T04:54:05.405Z,23.47
2016-08-30T04:55:05.417Z,23.53
2016-08-30T04:56:05.417Z,23.45
2016-08-30T04:57:05.412Z,23.48
2016-08-30T04:58:05.427Z,23.5
2016-08-30T04:59:05.429Z,23.5
2016-08-30T05:00:05.444Z,23.47
2016-08-30T05:01:05.453Z,23.5
2016-08-30T05:02:05.475Z,23.53
2016-08-30T05:03:05.465Z,23.52
2016-08-30T05:04:05.490Z,23.48
2016-08-30T05:05:05.488Z,23.55
2016-08-30T05:06:05.506Z,23.52
2016-08-30T05:07:05.493Z,23.48
2016-08-30T05:08:05.523Z,23.5
2016-08-30T05:09:05.515Z,23.48
2016-08-30T05:10:05.538Z,23.44
2016-08-30T05:11:05.538Z,23.47
2016-08-30T05:12:05.551Z,23.47
2016-08-30T05:13:05.539Z,23.42
2016-08-30T05:14:05.570Z,23.48
2016-08-30T05:15:05.559Z,23.53
2016-08-30T05:16:05.583Z,23.53
2016-08-30T05:17:05.570Z,23.55
2016-08-30T05:18:05.595Z,23.47
2016-08-30T05:19:05.603Z,23.52
2016-08-30T05:20:05.621Z,23.47
2016-08-30T05:21:05.615Z,23.5
2016-08-30T05:22:05.619Z,23.45
2016-08-30T05:23:05.642Z,23.53
2016-08-30T05:24:05.629Z,23.48
2016-08-30T05:25:06.353Z,23.55
2016-08-30T05:26:05.659Z,23.52
2016-08-30T05:27:05.668Z,23.53
2016-08-30T05:28:05.691Z,23.55
2016-08-30T05:29:05.685Z,23.5
2016-08-30T05:30:05.689Z,23.56
2016-08-30T05:31:05.695Z,23.53
2016-08-30T05:32:05.698Z,23.52
2016-08-30T05:33:05.709Z,23.52
2016-08-30T05:34:05.718Z,23.53
2016-08-30T05:35:05.739Z,23.53
2016-08-30T05:36:05.742Z,23.52
2016-08-30T05:37:05.750Z,23.53
2016-08-30T05:38:05.757Z,23.5
2016-08-30T05:39:05.773Z,23.5
2016-08-30T05:40:05.759Z,23.52
2016-08-30T05:41:05.788Z,23.53
2016-08-30T05:42:05.773Z,23.5
2016-08-30T05:43:05.804Z,23.52
2016-08-30T05:44:05.801Z,23.47
2016-08-30T05:45:07.091Z,23.47
2016-08-30T05:46:05.856Z,23.47
2016-08-30T05:47:05.845Z,23.56
2016-08-30T05:48:05.851Z,23.5
2016-08-30T05:49:05.850Z,23.5
2016-08-30T05:50:05.850Z,23.52
2016-08-30T05:51:05.849Z,23.52
2016-08-30T05:52:05.866Z,23.53
2016-08-30T05:53:11.271Z,23.5
2016-08-30T05:57:02.638Z,23.47
2016-08-30T05:57:58.973Z,23.52
2016-08-30T05:58:54.230Z,23.55
2016-08-30T05:59:55.243Z,23.47
2016-08-30T06:01:04.080Z,23.52
2016-08-30T06:01:54.267Z,23.5
2016-08-30T06:02:54.986Z,23.52
2016-08-30T06:03:54.284Z,23.53
2016-08-30T06:04:54.295Z,23.5
2016-08-30T06:05:54.292Z,23.52
2016-08-30T06:06:54.322Z,23.55
2016-08-30T06:07:54.355Z,23.59
2016-08-30T06:08:59.205Z,23.55
2016-08-30T06:09:54.378Z,23.56
2016-08-30T06:10:54.376Z,23.6
2016-08-30T06:11:54.353Z,23.55
2016-08-30T06:12:54.363Z,23.56
2016-08-30T06:13:54.375Z,23.62
2016-08-30T06:14:54.803Z,23.56
2016-08-30T06:15:54.382Z,23.56
2016-08-30T06:16:54.378Z,23.56
2016-08-30T06:17:54.389Z,23.55
2016-08-30T06:18:54.417Z,23.57
2016-08-30T06:19:54.446Z,23.55
2016-08-30T06:20:54.426Z,23.55
2016-08-30T06:21:54.437Z,23.57
2016-08-30T06:22:54.434Z,23.64
2016-08-30T06:23:56.285Z,23.56
2016-08-30T06:24:54.465Z,23.56
2016-08-30T06:25:54.477Z,23.56
2016-08-30T06:26:54.483Z,23.56
2016-08-30T06:27:54.470Z,23.59
2016-08-30T06:28:54.495Z,23.55
2016-08-30T06:29:54.508Z,23.59
2016-08-30T06:30:54.488Z,23.59
2016-08-30T06:31:54.514Z,23.56
2016-08-30T06:32:54.528Z,23.57
2016-08-30T06:33:54.515Z,23.56
2016-08-30T06:34:54.545Z,23.55
2016-08-30T06:35:54.555Z,23.57
2016-08-30T06:36:54.557Z,23.56
2016-08-30T06:37:54.554Z,23.56
2016-08-30T06:38:54.578Z,23.57
2016-08-30T06:39:54.583Z,23.57
2016-08-30T06:40:54.574Z,23.55
2016-08-30T06:41:54.598Z,23.56
2016-08-30T06:42:54.601Z,23.56
2016-08-30T06:43:54.618Z,23.57
2016-08-30T06:44:54.607Z,23.56
2016-08-30T06:45:54.624Z,23.56
2016-08-30T06:46:54.634Z,23.56
2016-08-30T06:47:54.638Z,23.6
2016-08-30T06:48:54.649Z,23.56
2016-08-30T06:49:54.656Z,23.6
2016-08-30T06:50:54.673Z,23.64
2016-08-30T06:51:54.659Z,23.62
2016-08-30T06:52:54.677Z,23.7
2016-08-30T06:53:55.393Z,23.63
2016-08-30T06:54:54.703Z,23.63
2016-08-30T06:55:54.704Z,23.64
2016-08-30T06:56:54.703Z,23.59
2016-08-30T06:57:54.723Z,23.67
2016-08-30T06:58:54.731Z,23.62
2016-08-30T06:59:54.736Z,23.7
2016-08-30T07:00:54.745Z,23.6
2016-08-30T07:01:54.759Z,23.6
2016-08-30T07:02:54.751Z,23.62
2016-08-30T07:03:54.767Z,23.67
2016-08-30T07:04:54.784Z,23.72
2016-08-30T07:05:54.790Z,23.64
2016-08-30T07:06:54.805Z,23.66
2016-08-30T07:07:54.799Z,23.66
2016-08-30T07:08:54.808Z,23.72
2016-08-30T07:09:54.815Z,23.66
2016-08-30T07:10:55.537Z,23.72
2016-08-30T07:11:54.841Z,23.66
2016-08-30T07:12:54.846Z,23.64
2016-08-30T07:13:54.840Z,23.66
2016-08-30T07:14:54.870Z,23.71
2016-08-30T07:15:54.869Z,23.71
2016-08-30T07:16:54.864Z,23.72
2016-08-30T07:17:54.877Z,23.72
2016-08-30T07:18:54.879Z,23.78
2016-08-30T07:19:54.976Z,23.82
2016-08-30T07:20:54.914Z,23.78
2016-08-30T07:21:54.917Z,23.77
2016-08-30T07:22:54.949Z,23.81
2016-08-30T07:23:54.936Z,23.77
2016-08-30T07:24:54.943Z,23.77
2016-08-30T07:25:54.959Z,23.77
2016-08-30T07:26:54.960Z,23.78
2016-08-30T07:27:54.969Z,23.75
2016-08-30T07:28:54.981Z,23.67
2016-08-30T07:29:54.985Z,23.71
2016-08-30T07:30:55.006Z,23.63
2016-08-30T07:31:54.988Z,23.71
2016-08-30T07:32:55.018Z,23.62
2016-08-30T07:33:55.022Z,23.62
2016-08-30T07:34:55.021Z,23.66
2016-08-30T07:35:55.029Z,23.56
2016-08-30T07:36:55.028Z,23.57
2016-08-30T07:37:55.040Z,23.59
2016-08-30T07:38:55.054Z,23.56
2016-08-30T07:39:55.057Z,23.53
2016-08-30T07:40:55.073Z,23.5
2016-08-30T07:41:55.081Z,23.52
2016-08-30T07:42:55.091Z,23.47
2016-08-30T07:43:55.099Z,23.55
2016-08-30T07:44:55.117Z,23.5
2016-08-30T07:45:55.111Z,23.48
2016-08-30T07:46:55.120Z,23.48
2016-08-30T07:47:55.123Z,23.52
2016-08-30T07:48:55.140Z,23.53
2016-08-30T07:49:55.150Z,23.45
2016-08-30T07:50:55.153Z,23.5
2016-08-30T07:51:55.168Z,23.47
2016-08-30T07:52:55.191Z,23.53
2016-08-30T07:53:55.163Z,23.42
2016-08-30T07:54:55.185Z,23.45
2016-08-30T07:55:55.181Z,23.47
2016-08-30T07:56:55.205Z,23.47
2016-08-30T07:57:55.211Z,23.41
2016-08-30T07:58:55.205Z,23.41
2016-08-30T07:59:55.221Z,23.35
2016-08-30T08:00:55.239Z,23.41
2016-08-30T08:01:55.354Z,23.34
2016-08-30T08:02:55.243Z,23.32
2016-08-30T08:03:55.270Z,23.37
2016-08-30T08:04:55.274Z,23.4
2016-08-30T08:05:55.272Z,23.34
2016-08-30T08:06:55.299Z,23.4
2016-08-30T08:07:55.979Z,23.35
2016-08-30T08:08:55.292Z,23.35
2016-08-30T08:09:55.311Z,23.38
2016-08-30T08:10:55.304Z,23.32
2016-08-30T08:11:55.330Z,23.29
2016-08-30T08:12:55.342Z,23.32
2016-08-30T08:13:55.349Z,23.19
2016-08-30T08:14:55.355Z,23.24
2016-08-30T08:15:55.341Z,23.19
2016-08-30T08:16:55.358Z,23.25
2016-08-30T08:17:55.378Z,23.22
2016-08-30T08:18:55.381Z,23.24
2016-08-30T08:19:55.383Z,23.25
2016-08-30T08:20:55.386Z,23.24
2016-08-30T08:21:55.407Z,23.18
2016-08-30T08:22:55.423Z,23.21
2016-08-30T08:23:55.417Z,23.14
2016-08-30T08:24:55.419Z,23.25
2016-08-30T08:25:55.426Z,23.24
2016-08-30T08:26:55.430Z,23.24
2016-08-30T08:27:55.449Z,23.16
2016-08-30T08:28:55.445Z,23.24
2016-08-30T08:29:55.468Z,23.28
2016-08-30T08:30:55.459Z,23.25
2016-08-30T08:31:55.464Z,23.29
2016-08-30T08:32:55.476Z,23.16
2016-08-30T08:33:55.509Z,23.28
2016-08-30T08:34:55.527Z,23.28
2016-08-30T08:35:55.513Z,23.22
2016-08-30T08:36:55.516Z,23.26
2016-08-30T08:37:55.534Z,23.29
2016-08-30T08:38:55.534Z,23.37
2016-08-30T08:39:55.550Z,23.35
2016-08-30T08:42:08.243Z,23.4
2016-08-30T08:43:08.243Z,23.32
2016-08-30T08:44:08.230Z,23.35
2016-08-30T08:45:11.727Z,23.26
2016-08-30T08:46:09.785Z,23.37
2016-08-30T08:47:08.280Z,23.35
2016-08-30T08:48:08.304Z,23.35
2016-08-30T08:49:08.286Z,23.38
2016-08-30T08:50:08.424Z,23.4
2016-08-30T08:51:08.312Z,23.34
2016-08-30T08:52:08.298Z,23.34
2016-08-30T08:53:08.301Z,23.41
2016-08-30T08:54:08.996Z,23.4
2016-08-30T08:55:08.386Z,23.37
2016-08-30T08:56:08.353Z,23.41
2016-08-30T08:57:08.344Z,23.4
2016-08-30T08:58:08.349Z,23.38
2016-08-30T08:59:08.607Z,23.38
2016-08-30T09:00:08.529Z,23.35
2016-08-30T09:01:08.384Z,23.35
2016-08-30T09:02:08.492Z,23.37
2016-08-30T09:03:08.419Z,23.35
2016-08-30T09:04:08.395Z,23.35
2016-08-30T09:05:09.837Z,23.28
2016-08-30T09:06:08.440Z,23.37
2016-08-30T09:07:09.240Z,23.38
2016-08-30T09:08:08.494Z,23.34
2016-08-30T09:09:08.503Z,23.41
2016-08-30T09:10:09.350Z,23.4
2016-08-30T09:11:08.449Z,23.35
2016-08-30T09:12:10.844Z,23.35
2016-08-30T09:13:08.470Z,23.37
2016-08-30T09:14:08.479Z,23.37
2016-08-30T09:15:08.481Z,23.35
2016-08-30T09:16:08.494Z,23.44
2016-08-30T09:17:08.490Z,23.37
2016-08-30T09:18:08.499Z,23.38
2016-08-30T09:19:08.520Z,23.4
2016-08-30T09:20:08.520Z,23.4
2016-08-30T09:21:08.521Z,23.4
2016-08-30T09:22:08.538Z,23.29
2016-08-30T09:23:08.575Z,23.41
2016-08-30T09:24:08.557Z,23.35
2016-08-30T09:25:08.571Z,23.35
2016-08-30T09:26:08.581Z,23.44
2016-08-30T09:27:08.585Z,23.38
2016-08-30T09:28:08.578Z,23.5
2016-08-30T09:29:08.586Z,23.37
2016-08-30T09:30:08.603Z,23.41
2016-08-30T09:31:08.611Z,23.48
2016-08-30T09:32:08.632Z,23.47
2016-08-30T09:33:08.638Z,23.52
2016-08-30T09:34:08.632Z,23.52
2016-08-30T09:35:09.347Z,23.45
2016-08-30T09:36:08.643Z,23.52
2016-08-30T09:37:08.661Z,23.53
2016-08-30T09:38:08.683Z,23.55
2016-08-30T09:39:08.684Z,23.55
2016-08-30T09:40:08.675Z,23.53
2016-08-30T09:41:08.688Z,23.48
2016-08-30T09:42:08.713Z,23.52
2016-08-30T09:43:08.715Z,23.52
2016-08-30T09:44:08.729Z,23.48
2016-08-30T09:45:08.715Z,23.45
2016-08-30T09:46:08.728Z,23.53
2016-08-30T09:47:08.744Z,23.5
2016-08-30T09:48:08.753Z,23.62
2016-08-30T09:49:08.744Z,23.55
2016-08-30T09:50:08.778Z,23.42
2016-08-30T09:51:08.763Z,23.45
2016-08-30T09:52:08.790Z,23.48
2016-08-30T09:53:08.800Z,23.48
2016-08-30T09:54:08.807Z,23.52
2016-08-30T09:55:08.809Z,23.48
2016-08-30T09:56:08.812Z,23.6
2016-08-30T09:57:08.829Z,23.53
2016-08-30T09:58:08.843Z,23.6
2016-08-30T09:59:08.835Z,23.57
2016-08-30T10:00:08.838Z,23.56
2016-08-30T10:01:08.864Z,23.56
2016-08-30T10:02:08.867Z,23.53
2016-08-30T10:03:08.883Z,23.56
2016-08-30T10:04:08.875Z,23.56
2016-08-30T10:05:08.886Z,23.59
2016-08-30T10:06:08.910Z,23.53
2016-08-30T10:07:08.893Z,23.57
2016-08-30T10:08:08.906Z,23.56
2016-08-30T10:09:08.935Z,23.53
2016-08-30T10:10:08.920Z,23.59
2016-08-30T10:11:08.931Z,23.57
2016-08-30T10:12:08.948Z,23.63
2016-08-30T10:13:08.957Z,23.71
2016-08-30T10:14:08.976Z,23.71
2016-08-30T10:15:08.960Z,23.63
2016-08-30T10:16:08.989Z,23.64
2016-08-30T10:17:08.989Z,23.71
2016-08-30T10:18:09.003Z,23.7
2016-08-30T10:19:08.998Z,23.62
2016-08-30T10:20:09.009Z,23.59
2016-08-30T10:21:09.022Z,23.72
2016-08-30T10:22:09.013Z,23.62
2016-08-30T10:23:09.030Z,23.7
2016-08-30T10:24:09.035Z,23.67
2016-08-30T10:25:09.542Z,23.77
2016-08-30T10:26:09.058Z,23.79
2016-08-30T10:27:09.069Z,23.81
2016-08-30T10:28:09.073Z,23.78
2016-08-30T10:29:09.075Z,23.78
2016-08-30T10:30:09.118Z,23.79
2016-08-30T10:31:09.103Z,23.77
2016-08-30T10:32:09.108Z,23.82
2016-08-30T10:33:09.104Z,23.75
2016-08-30T10:34:09.114Z,23.75
2016-08-30T10:35:09.135Z,23.74
2016-08-30T10:36:09.130Z,23.67
2016-08-30T10:37:09.142Z,23.7
2016-08-30T10:38:09.172Z,23.71
2016-08-30T10:39:09.166Z,23.77
2016-08-30T10:40:09.175Z,23.71
2016-08-30T10:41:09.190Z,23.72
2016-08-30T10:42:09.182Z,23.7
2016-08-30T10:43:09.201Z,23.75
2016-08-30T10:44:09.216Z,23.84
2016-08-30T10:45:09.206Z,23.87
2016-08-30T10:46:09.234Z,23.77
2016-08-30T10:47:09.226Z,23.81
2016-08-30T10:48:09.229Z,23.81
2016-08-30T10:49:09.254Z,23.81
2016-08-30T10:50:09.267Z,23.74
2016-08-30T10:51:09.291Z,23.77
2016-08-30T10:52:09.260Z,23.75
2016-08-30T10:53:09.285Z,23.72
2016-08-30T10:54:09.291Z,23.74
2016-08-30T10:55:09.292Z,23.67
2016-08-30T10:56:09.331Z,23.64
2016-08-30T10:57:09.330Z,23.7
2016-08-30T10:58:09.331Z,23.67
2016-08-30T10:59:09.318Z,23.67
2016-08-30T11:00:09.340Z,23.66
2016-08-30T11:01:09.346Z,23.78
2016-08-30T11:02:09.415Z,23.72
2016-08-30T11:03:09.351Z,23.75
2016-08-30T11:04:09.390Z,23.74
2016-08-30T11:05:09.368Z,23.78
2016-08-30T11:06:09.388Z,23.75
2016-08-30T11:07:09.385Z,23.74
2016-08-30T11:08:09.411Z,23.82
2016-08-30T11:09:09.424Z,23.77
2016-08-30T11:10:09.418Z,23.77
2016-08-30T11:11:09.440Z,23.84
2016-08-30T11:12:09.430Z,23.84
2016-08-30T11:13:09.447Z,23.93
2016-08-30T11:14:09.449Z,23.94
2016-08-30T11:15:09.468Z,23.92
2016-08-30T11:16:09.472Z,24.03
2016-08-30T11:17:09.478Z,24.11
2016-08-30T11:18:09.478Z,24.02
2016-08-30T11:19:09.479Z,24.08
2016-08-30T11:20:09.498Z,24.18
2016-08-30T11:21:09.522Z,24.22
2016-08-30T11:22:09.524Z,24.22
2016-08-30T11:23:09.647Z,24.29
2016-08-30T11:24:09.530Z,24.27
2016-08-30T11:25:10.089Z,24.29
2016-08-30T11:26:09.544Z,24.27
2016-08-30T11:27:09.557Z,24.3
2016-08-30T11:28:09.585Z,24.39
2016-08-30T11:29:09.575Z,24.4
2016-08-30T11:30:09.587Z,24.36
2016-08-30T11:31:09.593Z,24.4
2016-08-30T11:32:09.613Z,24.56
2016-08-30T11:33:09.615Z,24.48
2016-08-30T11:34:09.629Z,24.49
2016-08-30T11:35:09.616Z,24.63
2016-08-30T11:36:09.636Z,24.55
2016-08-30T11:37:09.644Z,24.56
2016-08-30T11:38:09.662Z,24.71
2016-08-30T11:39:09.649Z,24.75
2016-08-30T11:40:09.692Z,24.74
2016-08-30T11:41:09.681Z,24.77
2016-08-30T11:42:09.695Z,24.75
2016-08-30T11:43:09.699Z,24.85
2016-08-30T11:44:09.711Z,24.82
2016-08-30T11:45:09.703Z,24.82
2016-08-30T11:46:09.720Z,24.8
2016-08-30T11:47:09.723Z,24.8
2016-08-30T11:48:09.729Z,24.83
2016-08-30T11:49:09.749Z,24.82
2016-08-30T11:50:09.769Z,24.82
2016-08-30T11:51:09.778Z,24.78
2016-08-30T11:52:09.778Z,24.85
2016-08-30T11:53:10.169Z,24.8
2016-08-30T11:54:09.795Z,24.78
2016-08-30T11:55:09.796Z,24.85
2016-08-30T11:56:09.796Z,24.82
2016-08-30T11:57:09.817Z,24.83
2016-08-30T11:58:09.826Z,24.8
2016-08-30T11:59:09.834Z,24.87
2016-08-30T12:00:09.849Z,24.8
2016-08-30T12:01:09.840Z,24.7
2016-08-30T12:02:09.845Z,24.85
2016-08-30T12:03:09.877Z,24.82
2016-08-30T12:04:09.874Z,24.78
2016-08-30T12:05:09.882Z,24.94
2016-08-30T12:06:09.880Z,24.92
2016-08-30T12:07:09.915Z,25
2016-08-30T12:08:09.900Z,24.97
2016-08-30T12:09:09.914Z,24.94
2016-08-30T12:10:10.070Z,25.04
2016-08-30T12:11:09.935Z,25.01
2016-08-30T12:12:09.949Z,25.05
2016-08-30T12:13:09.959Z,25.08
2016-08-30T12:14:09.954Z,25.09
2016-08-30T12:15:09.990Z,25.09
2016-08-30T12:16:09.967Z,25.08
2016-08-30T12:17:09.995Z,25.15
2016-08-30T12:18:09.993Z,25.23
2016-08-30T12:19:09.999Z,25.23
2016-08-30T12:20:10.020Z,25.33
2016-08-30T12:21:10.020Z,25.27
2016-08-30T12:22:10.045Z,25.34
2016-08-30T12:23:10.034Z,25.38
2016-08-30T12:24:10.050Z,25.44
2016-08-30T12:25:10.050Z,25.47
2016-08-30T12:26:10.072Z,25.42
2016-08-30T12:27:10.079Z,25.52
2016-08-30T12:28:10.090Z,25.45
2016-08-30T12:29:10.103Z,25.47
2016-08-30T12:30:10.102Z,25.39
2016-08-30T12:31:10.118Z,25.47
2016-08-30T12:32:10.111Z,25.51
2016-08-30T12:33:10.126Z,25.48
2016-08-30T12:34:10.145Z,25.48
2016-08-30T12:35:10.154Z,25.48
2016-08-30T12:36:10.155Z,25.51
2016-08-30T12:37:10.161Z,25.57
2016-08-30T12:38:10.180Z,25.57
2016-08-30T12:39:10.190Z,25.66
2016-08-30T12:40:10.517Z,25.67
2016-08-30T12:41:10.197Z,25.67
2016-08-30T12:42:10.213Z,25.63
2016-08-30T12:43:10.205Z,25.54
2016-08-30T12:44:10.228Z,25.52
2016-08-30T12:45:10.255Z,25.54
2016-08-30T12:46:10.249Z,25.63
2016-08-30T12:47:10.251Z,25.66
2016-08-30T12:48:10.262Z,25.66
2016-08-30T12:49:10.271Z,25.62
2016-08-30T12:50:10.292Z,25.7
2016-08-30T12:51:10.293Z,25.84
2016-08-30T12:52:10.293Z,25.76
2016-08-30T12:53:10.362Z,25.78
2016-08-30T14:05:53.880Z,26.91
2016-08-30T14:06:38.969Z,26.72
